sensor_id;sensor_type;location;lat;lon;timestamp;pressure;altitude;pressure_sealevel;temperature;humidity
19112;BME280;9688;51.906;8.376;2022-10-16T00:02:55;100270.63;;;15.05;94.67
19112;BME280;9688;51.906;8.376;2022-10-16T00:06:00;100268.91;;;15.04;95.25
19112;BME280;9688;51.906;8.376;2022-10-16T00:09:07;100261.97;;;15.02;94.89
19112;BME280;9688;51.906;8.376;2022-10-16T00:12:16;100260.25;;;15.01;95.40
19112;BME280;9688;51.906;8.376;2022-10-16T00:15:20;100262.16;;;14.99;95.11
19112;BME280;9688;51.906;8.376;2022-10-16T00:18:25;100264.09;;;14.97;95.62
19112;BME280;9688;51.906;8.376;2022-10-16T00:21:32;100256.19;;;14.95;95.03
19112;BME280;9688;51.906;8.376;2022-10-16T00:24:38;100280.97;;;14.95;95.24
19112;BME280;9688;51.906;8.376;2022-10-16T00:27:43;100284.69;;;14.93;95.58
19112;BME280;9688;51.906;8.376;2022-10-16T00:30:53;100275.97;;;14.91;95.52
19112;BME280;9688;51.906;8.376;2022-10-16T00:34:01;100271.69;;;14.88;95.45
19112;BME280;9688;51.906;8.376;2022-10-16T00:37:06;100271.69;;;14.88;95.84
19112;BME280;9688;51.906;8.376;2022-10-16T00:40:20;100256.75;;;14.86;96.07
19112;BME280;9688;51.906;8.376;2022-10-16T00:43:39;100265.78;;;14.83;95.63
19112;BME280;9688;51.906;8.376;2022-10-16T00:46:43;100265.88;;;14.82;96.02
19112;BME280;9688;51.906;8.376;2022-10-16T00:49:50;100268.72;;;14.79;95.76
19112;BME280;9688;51.906;8.376;2022-10-16T00:52:57;100260.09;;;14.75;96.00
19112;BME280;9688;51.906;8.376;2022-10-16T00:56:04;100267.41;;;14.71;96.06
19112;BME280;9688;51.906;8.376;2022-10-16T00:59:14;100274.63;;;14.69;96.22
19112;BME280;9688;51.906;8.376;2022-10-16T01:02:19;100273.09;;;14.65;96.35
19112;BME280;9688;51.906;8.376;2022-10-16T01:05:28;100276.88;;;14.61;96.51
19112;BME280;9688;51.906;8.376;2022-10-16T01:08:40;100289.53;;;14.58;96.25
19112;BME280;9688;51.906;8.376;2022-10-16T01:11:57;100289.69;;;14.55;96.71
19112;BME280;9688;51.906;8.376;2022-10-16T01:15:11;100282.59;;;14.55;96.35
19112;BME280;9688;51.906;8.376;2022-10-16T01:18:21;100282.59;;;14.55;96.29
19112;BME280;9688;51.906;8.376;2022-10-16T01:21:32;100282.59;;;14.55;96.45
19112;BME280;9688;51.906;8.376;2022-10-16T01:24:40;100287.19;;;14.51;96.56
19112;BME280;9688;51.906;8.376;2022-10-16T01:27:49;100287.28;;;14.50;96.51
19112;BME280;9688;51.906;8.376;2022-10-16T01:30:58;100291.91;;;14.46;97.12
19112;BME280;9688;51.906;8.376;2022-10-16T01:34:31;100297.53;;;14.42;97.35
19112;BME280;9688;51.906;8.376;2022-10-16T01:37:39;100297.72;;;14.39;97.30
19112;BME280;9688;51.906;8.376;2022-10-16T01:40:48;100306.81;;;14.35;97.29
19112;BME280;9688;51.906;8.376;2022-10-16T01:44:01;100312.25;;;14.33;97.69
19112;BME280;9688;51.906;8.376;2022-10-16T01:47:09;100311.47;;;14.31;97.70
19112;BME280;9688;51.906;8.376;2022-10-16T01:50:16;100298.25;;;14.29;97.88
19112;BME280;9688;51.906;8.376;2022-10-16T01:53:29;100310.69;;;14.29;97.80
19112;BME280;9688;51.906;8.376;2022-10-16T01:56:36;100306.41;;;14.26;98.07
19112;BME280;9688;51.906;8.376;2022-10-16T01:59:45;100296.91;;;14.22;98.09
19112;BME280;9688;51.906;8.376;2022-10-16T02:02:53;100293.56;;;14.19;98.36
19112;BME280;9688;51.906;8.376;2022-10-16T02:06:01;100300.88;;;14.15;98.48
19112;BME280;9688;51.906;8.376;2022-10-16T02:09:07;100298.50;;;14.11;98.32
19112;BME280;9688;51.906;8.376;2022-10-16T02:12:15;100291.63;;;14.06;98.51
19112;BME280;9688;51.906;8.376;2022-10-16T02:15:24;100300.56;;;14.05;98.67
19112;BME280;9688;51.906;8.376;2022-10-16T02:18:29;100301.59;;;14.03;98.49
19112;BME280;9688;51.906;8.376;2022-10-16T02:21:39;100303.47;;;14.01;98.65
19112;BME280;9688;51.906;8.376;2022-10-16T02:24:51;100301.66;;;14.01;98.66
19112;BME280;9688;51.906;8.376;2022-10-16T02:28:04;100291.63;;;14.06;98.72
19112;BME280;9688;51.906;8.376;2022-10-16T02:31:15;100301.22;;;14.09;98.85
19112;BME280;9688;51.906;8.376;2022-10-16T02:34:24;100302.84;;;14.12;99.07
19112;BME280;9688;51.906;8.376;2022-10-16T02:37:29;100314.94;;;14.17;98.80
19112;BME280;9688;51.906;8.376;2022-10-16T02:40:38;100300.59;;;14.20;98.92
19112;BME280;9688;51.906;8.376;2022-10-16T02:43:42;100303.16;;;14.21;98.85
19112;BME280;9688;51.906;8.376;2022-10-16T02:47:19;100307.91;;;14.16;99.06
19112;BME280;9688;51.906;8.376;2022-10-16T02:50:29;100307.03;;;14.16;99.18
19112;BME280;9688;51.906;8.376;2022-10-16T02:53:40;100307.03;;;14.16;98.95
19112;BME280;9688;51.906;8.376;2022-10-16T02:56:57;100307.13;;;14.14;99.25
19112;BME280;9688;51.906;8.376;2022-10-16T03:00:09;100311.50;;;14.15;99.27
19112;BME280;9688;51.906;8.376;2022-10-16T03:03:25;100315.97;;;14.15;99.25
19112;BME280;9688;51.906;8.376;2022-10-16T03:06:35;100307.13;;;14.14;99.35
19112;BME280;9688;51.906;8.376;2022-10-16T03:09:39;100311.59;;;14.14;99.45
19112;BME280;9688;51.906;8.376;2022-10-16T03:12:44;100311.69;;;14.12;99.41
19112;BME280;9688;51.906;8.376;2022-10-16T03:15:48;100311.78;;;14.11;99.40
19112;BME280;9688;51.906;8.376;2022-10-16T03:18:55;100317.09;;;14.11;99.49
19112;BME280;9688;51.906;8.376;2022-10-16T03:21:59;100315.38;;;14.10;99.56
19112;BME280;9688;51.906;8.376;2022-10-16T03:25:04;100307.50;;;14.08;99.93
19112;BME280;9688;51.906;8.376;2022-10-16T03:28:09;100303.88;;;14.09;99.64
19112;BME280;9688;51.906;8.376;2022-10-16T03:31:15;100303.88;;;14.09;99.84
19112;BME280;9688;51.906;8.376;2022-10-16T03:34:23;100303.13;;;14.07;99.50
19112;BME280;9688;51.906;8.376;2022-10-16T03:37:31;100310.41;;;14.03;99.58
19112;BME280;9688;51.906;8.376;2022-10-16T03:40:35;100310.34;;;14.05;99.40
19112;BME280;9688;51.906;8.376;2022-10-16T03:43:40;100315.53;;;14.06;99.51
19112;BME280;9688;51.906;8.376;2022-10-16T03:46:44;100325.06;;;14.11;99.59
19112;BME280;9688;51.906;8.376;2022-10-16T03:49:50;100324.91;;;14.14;99.39
19112;BME280;9688;51.906;8.376;2022-10-16T03:52:55;100325.38;;;14.20;99.26
19112;BME280;9688;51.906;8.376;2022-10-16T03:55:59;100323.31;;;14.25;99.15
19112;BME280;9688;51.906;8.376;2022-10-16T03:59:06;100317.63;;;14.32;99.05
19112;BME280;9688;51.906;8.376;2022-10-16T04:02:10;100319.06;;;14.37;98.59
19112;BME280;9688;51.906;8.376;2022-10-16T04:05:52;100309.28;;;14.38;98.33
19112;BME280;9688;51.906;8.376;2022-10-16T04:09:03;100314.16;;;14.45;98.41
19112;BME280;9688;51.906;8.376;2022-10-16T04:12:08;100313.88;;;14.50;98.00
19112;BME280;9688;51.906;8.376;2022-10-16T04:15:22;100314.50;;;14.55;97.90
19112;BME280;9688;51.906;8.376;2022-10-16T04:18:27;100315.06;;;14.60;97.76
19112;BME280;9688;51.906;8.376;2022-10-16T04:21:33;100314.72;;;14.66;97.84
19112;BME280;9688;51.906;8.376;2022-10-16T04:24:37;100332.19;;;14.70;97.40
19112;BME280;9688;51.906;8.376;2022-10-16T04:27:42;100336.47;;;14.73;97.55
19112;BME280;9688;51.906;8.376;2022-10-16T04:30:56;100331.06;;;14.75;96.91
19112;BME280;9688;51.906;8.376;2022-10-16T04:34:00;100345.91;;;14.79;96.94
19112;BME280;9688;51.906;8.376;2022-10-16T04:37:06;100341.34;;;14.81;96.72
19112;BME280;9688;51.906;8.376;2022-10-16T04:40:15;100340.31;;;14.83;96.67
19112;BME280;9688;51.906;8.376;2022-10-16T04:43:19;100337.53;;;14.85;96.37
19112;BME280;9688;51.906;8.376;2022-10-16T04:46:24;100339.47;;;14.83;96.97
19112;BME280;9688;51.906;8.376;2022-10-16T04:49:28;100351.69;;;14.85;96.83
19112;BME280;9688;51.906;8.376;2022-10-16T04:52:34;100360.44;;;14.87;96.07
19112;BME280;9688;51.906;8.376;2022-10-16T04:55:39;100367.38;;;14.90;96.20
19112;BME280;9688;51.906;8.376;2022-10-16T04:58:44;100370.06;;;14.90;96.25
19112;BME280;9688;51.906;8.376;2022-10-16T05:01:48;100369.41;;;14.86;96.37
19112;BME280;9688;51.906;8.376;2022-10-16T05:04:52;100365.28;;;14.81;96.20
19112;BME280;9688;51.906;8.376;2022-10-16T05:08:01;100373.47;;;14.78;96.20
19112;BME280;9688;51.906;8.376;2022-10-16T05:11:06;100379.91;;;14.73;96.54
19112;BME280;9688;51.906;8.376;2022-10-16T05:14:20;100365.94;;;14.70;96.45
19112;BME280;9688;51.906;8.376;2022-10-16T05:17:24;100372.28;;;14.67;96.45
19112;BME280;9688;51.906;8.376;2022-10-16T05:20:32;100381.50;;;14.62;96.59
19112;BME280;9688;51.906;8.376;2022-10-16T05:23:38;100382.72;;;14.56;96.38
19112;BME280;9688;51.906;8.376;2022-10-16T05:26:43;100386.50;;;14.52;96.78
19112;BME280;9688;51.906;8.376;2022-10-16T05:29:51;100375.25;;;14.47;96.90
19112;BME280;9688;51.906;8.376;2022-10-16T05:32:58;100377.22;;;14.43;96.81
19112;BME280;9688;51.906;8.376;2022-10-16T05:36:03;100378.25;;;14.41;96.64
19112;BME280;9688;51.906;8.376;2022-10-16T05:39:10;100379.31;;;14.38;96.98
19112;BME280;9688;51.906;8.376;2022-10-16T05:42:17;100378.44;;;14.38;97.05
19112;BME280;9688;51.906;8.376;2022-10-16T05:45:22;100393.72;;;14.34;96.55
19112;BME280;9688;51.906;8.376;2022-10-16T05:48:26;100401.69;;;14.34;97.13
19112;BME280;9688;51.906;8.376;2022-10-16T05:51:31;100410.69;;;14.32;97.09
19112;BME280;9688;51.906;8.376;2022-10-16T05:54:37;100411.72;;;14.29;96.94
19112;BME280;9688;51.906;8.376;2022-10-16T05:57:42;100416.28;;;14.27;97.20
19112;BME280;9688;51.906;8.376;2022-10-16T06:00:55;100414.56;;;14.26;96.85
19112;BME280;9688;51.906;8.376;2022-10-16T06:04:00;100425.22;;;14.26;97.13
19112;BME280;9688;51.906;8.376;2022-10-16T06:07:04;100435.00;;;14.25;96.94
19112;BME280;9688;51.906;8.376;2022-10-16T06:10:10;100444.00;;;14.23;97.00
19112;BME280;9688;51.906;8.376;2022-10-16T06:13:15;100428.81;;;14.25;97.20
19112;BME280;9688;51.906;8.376;2022-10-16T06:16:23;100438.50;;;14.26;97.09
19112;BME280;9688;51.906;8.376;2022-10-16T06:19:52;100437.47;;;14.28;97.07
19112;BME280;9688;51.906;8.376;2022-10-16T06:22:56;100436.63;;;14.28;97.39
19112;BME280;9688;51.906;8.376;2022-10-16T06:26:10;100429.25;;;14.33;96.71
19112;BME280;9688;51.906;8.376;2022-10-16T06:29:15;100442.97;;;14.41;96.72
19112;BME280;9688;51.906;8.376;2022-10-16T06:32:19;100444.22;;;14.50;96.26
19112;BME280;9688;51.906;8.376;2022-10-16T06:35:24;100450.25;;;14.54;96.30
19112;BME280;9688;51.906;8.376;2022-10-16T06:38:29;100454.47;;;14.58;95.94
19112;BME280;9688;51.906;8.376;2022-10-16T06:41:35;100463.19;;;14.60;95.89
19112;BME280;9688;51.906;8.376;2022-10-16T06:44:40;100465.69;;;14.63;95.96
19112;BME280;9688;51.906;8.376;2022-10-16T06:47:44;100467.31;;;14.65;96.05
19112;BME280;9688;51.906;8.376;2022-10-16T06:50:56;100467.41;;;14.64;95.72
19112;BME280;9688;51.906;8.376;2022-10-16T06:54:01;100482.34;;;14.66;95.45
19112;BME280;9688;51.906;8.376;2022-10-16T06:57:07;100492.69;;;14.71;95.70
19112;BME280;9688;51.906;8.376;2022-10-16T07:00:15;100495.09;;;14.76;95.74
19112;BME280;9688;51.906;8.376;2022-10-16T07:03:19;100503.41;;;14.85;95.35
19112;BME280;9688;51.906;8.376;2022-10-16T07:06:25;100505.53;;;14.94;94.81
19112;BME280;9688;51.906;8.376;2022-10-16T07:09:30;100504.13;;;15.03;94.72
19112;BME280;9688;51.906;8.376;2022-10-16T07:12:35;100507.47;;;15.07;94.13
19112;BME280;9688;51.906;8.376;2022-10-16T07:15:40;100510.72;;;15.12;94.62
19112;BME280;9688;51.906;8.376;2022-10-16T07:18:46;100519.31;;;15.17;94.17
19112;BME280;9688;51.906;8.376;2022-10-16T07:21:56;100523.41;;;15.23;93.74
19112;BME280;9688;51.906;8.376;2022-10-16T07:25:01;100533.78;;;15.27;93.78
19112;BME280;9688;51.906;8.376;2022-10-16T07:28:06;100540.38;;;15.36;93.40
19112;BME280;9688;51.906;8.376;2022-10-16T07:31:15;100546.84;;;15.46;92.92
19112;BME280;9688;51.906;8.376;2022-10-16T07:34:20;100551.84;;;15.52;92.90
19112;BME280;9688;51.906;8.376;2022-10-16T07:37:25;100555.75;;;15.61;92.50
19112;BME280;9688;51.906;8.376;2022-10-16T07:40:29;100562.78;;;15.62;92.89
19112;BME280;9688;51.906;8.376;2022-10-16T07:43:35;100567.91;;;15.65;92.93
19112;BME280;9688;51.906;8.376;2022-10-16T07:46:39;100579.44;;;15.66;92.36
19112;BME280;9688;51.906;8.376;2022-10-16T07:49:44;100579.53;;;15.64;92.67
19112;BME280;9688;51.906;8.376;2022-10-16T07:52:48;100586.09;;;15.58;92.83
19112;BME280;9688;51.906;8.376;2022-10-16T07:55:57;100596.84;;;15.57;92.61
19112;BME280;9688;51.906;8.376;2022-10-16T07:59:03;100593.44;;;15.55;92.67
19112;BME280;9688;51.906;8.376;2022-10-16T08:02:10;100590.00;;;15.53;92.46
19112;BME280;9688;51.906;8.376;2022-10-16T08:05:14;100587.13;;;15.56;92.89
19112;BME280;9688;51.906;8.376;2022-10-16T08:08:19;100597.78;;;15.56;92.93
19112;BME280;9688;51.906;8.376;2022-10-16T08:11:23;100590.47;;;15.59;92.79
19112;BME280;9688;51.906;8.376;2022-10-16T08:14:29;100590.28;;;15.62;92.37
19112;BME280;9688;51.906;8.376;2022-10-16T08:17:34;100598.69;;;15.71;92.36
19112;BME280;9688;51.906;8.376;2022-10-16T08:20:39;100600.84;;;15.80;92.34
19112;BME280;9688;51.906;8.376;2022-10-16T08:23:43;100611.69;;;15.91;92.04
19112;BME280;9688;51.906;8.376;2022-10-16T08:26:48;100613.53;;;16.05;91.86
19112;BME280;9688;51.906;8.376;2022-10-16T08:29:54;100611.91;;;16.17;91.16
19112;BME280;9688;51.906;8.376;2022-10-16T08:33:01;100621.72;;;16.31;90.99
19112;BME280;9688;51.906;8.376;2022-10-16T08:36:07;100625.41;;;16.42;90.14
19112;BME280;9688;51.906;8.376;2022-10-16T08:39:12;100632.75;;;16.53;90.18
19112;BME280;9688;51.906;8.376;2022-10-16T08:42:34;100630.91;;;16.68;89.86
19112;BME280;9688;51.906;8.376;2022-10-16T08:49:16;100655.69;;;16.99;89.08
19112;BME280;9688;51.906;8.376;2022-10-16T08:52:22;100654.91;;;17.11;88.60
19112;BME280;9688;51.906;8.376;2022-10-16T08:55:34;100663.91;;;17.23;88.05
19112;BME280;9688;51.906;8.376;2022-10-16T08:58:41;100656.91;;;17.34;87.15
19112;BME280;9688;51.906;8.376;2022-10-16T09:01:50;100655.25;;;17.46;86.75
19112;BME280;9688;51.906;8.376;2022-10-16T09:05:10;100664.25;;;17.58;86.03
19112;BME280;9688;51.906;8.376;2022-10-16T09:08:28;100662.28;;;17.74;85.26
19112;BME280;9688;51.906;8.376;2022-10-16T09:11:41;100665.09;;;17.86;84.58
19112;BME280;9688;51.906;8.376;2022-10-16T09:14:56;100672.47;;;17.95;84.43
19112;BME280;9688;51.906;8.376;2022-10-16T09:18:11;100676.88;;;18.09;83.73
19112;BME280;9688;51.906;8.376;2022-10-16T09:21:21;100670.88;;;18.18;83.20
19112;BME280;9688;51.906;8.376;2022-10-16T09:24:26;100688.16;;;18.26;83.11
19112;BME280;9688;51.906;8.376;2022-10-16T09:27:30;100691.25;;;18.33;82.55
19112;BME280;9688;51.906;8.376;2022-10-16T09:30:35;100680.75;;;18.43;81.88
19112;BME280;9688;51.906;8.376;2022-10-16T09:33:45;100684.63;;;18.52;81.15
19112;BME280;9688;51.906;8.376;2022-10-16T09:36:53;100687.16;;;18.53;80.63
19112;BME280;9688;51.906;8.376;2022-10-16T09:39:59;100691.34;;;18.57;79.88
19112;BME280;9688;51.906;8.376;2022-10-16T09:43:20;100685.88;;;18.59;79.51
19112;BME280;9688;51.906;8.376;2022-10-16T09:46:28;100683.72;;;18.64;79.17
19112;BME280;9688;51.906;8.376;2022-10-16T09:49:35;100682.22;;;18.72;78.77
19112;BME280;9688;51.906;8.376;2022-10-16T09:52:40;100691.56;;;18.80;78.10
19112;BME280;9688;51.906;8.376;2022-10-16T09:55:48;100695.84;;;18.82;77.64
19112;BME280;9688;51.906;8.376;2022-10-16T09:58:54;100703.66;;;18.85;77.52
19112;BME280;9688;51.906;8.376;2022-10-16T10:02:02;100703.13;;;18.93;76.19
19112;BME280;9688;51.906;8.376;2022-10-16T10:05:18;100696.88;;;18.92;75.67
19112;BME280;9688;51.906;8.376;2022-10-16T10:08:24;100706.50;;;18.95;75.14
19112;BME280;9688;51.906;8.376;2022-10-16T10:11:53;100709.84;;;18.99;74.71
19112;BME280;9688;51.906;8.376;2022-10-16T10:15:04;100713.13;;;19.15;74.07
19112;BME280;9688;51.906;8.376;2022-10-16T10:18:17;100724.53;;;19.30;73.11
19112;BME280;9688;51.906;8.376;2022-10-16T10:21:26;100725.47;;;19.42;73.05
19112;BME280;9688;51.906;8.376;2022-10-16T10:24:31;100724.78;;;19.51;72.35
19112;BME280;9688;51.906;8.376;2022-10-16T10:27:42;100723.88;;;19.63;71.37
19112;BME280;9688;51.906;8.376;2022-10-16T10:30:56;100721.50;;;19.71;70.75
19112;BME280;9688;51.906;8.376;2022-10-16T10:34:16;100727.63;;;19.73;70.32
19112;BME280;9688;51.906;8.376;2022-10-16T10:37:40;100727.25;;;19.78;70.01
19112;BME280;9688;51.906;8.376;2022-10-16T10:40:52;100729.38;;;19.86;69.58
19112;BME280;9688;51.906;8.376;2022-10-16T10:44:07;100729.59;;;19.82;69.64
19112;BME280;9688;51.906;8.376;2022-10-16T10:47:26;100738.41;;;19.85;69.32
19112;BME280;9688;51.906;8.376;2022-10-16T10:50:40;100731.34;;;19.95;69.29
19112;BME280;9688;51.906;8.376;2022-10-16T10:53:54;100728.09;;;20.14;68.94
19112;BME280;9688;51.906;8.376;2022-10-16T10:57:03;100741.22;;;20.30;68.48
19112;BME280;9688;51.906;8.376;2022-10-16T11:00:21;100743.41;;;20.36;68.23
19112;BME280;9688;51.906;8.376;2022-10-16T11:03:40;100734.88;;;20.42;68.01
19112;BME280;9688;51.906;8.376;2022-10-16T11:06:49;100736.97;;;20.38;67.45
19112;BME280;9688;51.906;8.376;2022-10-16T11:09:59;100741.56;;;20.25;67.21
19112;BME280;9688;51.906;8.376;2022-10-16T11:13:17;100748.78;;;20.36;67.11
19112;BME280;9688;51.906;8.376;2022-10-16T11:16:27;100754.88;;;20.26;66.90
19112;BME280;9688;51.906;8.376;2022-10-16T11:19:38;100747.75;;;20.14;66.94
19112;BME280;9688;51.906;8.376;2022-10-16T11:22:49;100739.66;;;20.03;67.00
19112;BME280;9688;51.906;8.376;2022-10-16T11:26:01;100748.69;;;20.02;67.13
19112;BME280;9688;51.906;8.376;2022-10-16T11:29:12;100753.31;;;20.00;66.96
19112;BME280;9688;51.906;8.376;2022-10-16T11:32:25;100754.50;;;19.85;67.28
19112;BME280;9688;51.906;8.376;2022-10-16T11:35:39;100750.69;;;19.63;67.47
19112;BME280;9688;51.906;8.376;2022-10-16T11:38:49;100757.47;;;19.56;67.78
19112;BME280;9688;51.906;8.376;2022-10-16T11:42:02;100761.59;;;19.49;67.86
19112;BME280;9688;51.906;8.376;2022-10-16T11:45:16;100754.09;;;19.41;67.77
19112;BME280;9688;51.906;8.376;2022-10-16T11:48:31;100759.91;;;19.35;68.00
19112;BME280;9688;51.906;8.376;2022-10-16T11:51:40;100755.63;;;19.32;68.03
19112;BME280;9688;51.906;8.376;2022-10-16T11:54:53;100752.97;;;19.32;67.91
19112;BME280;9688;51.906;8.376;2022-10-16T11:58:13;100749.06;;;19.36;67.94
19112;BME280;9688;51.906;8.376;2022-10-16T12:01:25;100757.88;;;19.38;67.77
19112;BME280;9688;51.906;8.376;2022-10-16T12:04:39;100754.06;;;19.54;67.55
19112;BME280;9688;51.906;8.376;2022-10-16T12:07:54;100753.47;;;19.61;67.38
19112;BME280;9688;51.906;8.376;2022-10-16T12:11:19;100757.22;;;19.72;67.10
19112;BME280;9688;51.906;8.376;2022-10-16T12:14:37;100771.22;;;19.88;66.92
19112;BME280;9688;51.906;8.376;2022-10-16T12:17:42;100777.88;;;20.07;66.36
19112;BME280;9688;51.906;8.376;2022-10-16T12:20:54;100777.66;;;20.10;66.52
19112;BME280;9688;51.906;8.376;2022-10-16T12:24:03;100769.84;;;20.07;66.45
19112;BME280;9688;51.906;8.376;2022-10-16T12:27:24;100770.63;;;19.96;66.53
19112;BME280;9688;51.906;8.376;2022-10-16T12:30:34;100770.03;;;20.03;66.07
19112;BME280;9688;51.906;8.376;2022-10-16T12:33:50;100774.59;;;20.14;66.00
19112;BME280;9688;51.906;8.376;2022-10-16T12:37:08;100783.00;;;20.10;65.61
19112;BME280;9688;51.906;8.376;2022-10-16T12:40:23;100775.81;;;20.10;65.30
19112;BME280;9688;51.906;8.376;2022-10-16T12:43:39;100779.72;;;20.17;65.09
19112;BME280;9688;51.906;8.376;2022-10-16T12:46:47;100778.09;;;20.39;64.73
19112;BME280;9688;51.906;8.376;2022-10-16T12:49:54;100789.28;;;20.57;64.29
19112;BME280;9688;51.906;8.376;2022-10-16T12:53:01;100795.88;;;20.64;63.91
19112;BME280;9688;51.906;8.376;2022-10-16T12:56:14;100794.28;;;20.72;63.46
19112;BME280;9688;51.906;8.376;2022-10-16T12:59:29;100799.66;;;20.72;63.69
19112;BME280;9688;51.906;8.376;2022-10-16T13:03:22;100797.00;;;20.84;63.54
19112;BME280;9688;51.906;8.376;2022-10-16T13:06:34;100798.47;;;20.99;63.14
19112;BME280;9688;51.906;8.376;2022-10-16T13:09:55;100798.22;;;21.13;62.32
19112;BME280;9688;51.906;8.376;2022-10-16T13:13:29;100804.09;;;21.19;62.30
19112;BME280;9688;51.906;8.376;2022-10-16T13:16:49;100801.75;;;21.25;61.93
19112;BME280;9688;51.906;8.376;2022-10-16T13:20:10;100811.56;;;21.15;62.39
19112;BME280;9688;51.906;8.376;2022-10-16T13:23:22;100805.56;;;21.23;62.25
19112;BME280;9688;51.906;8.376;2022-10-16T13:26:35;100811.81;;;21.12;62.53
19112;BME280;9688;51.906;8.376;2022-10-16T13:29:45;100811.41;;;20.94;62.83
19112;BME280;9688;51.906;8.376;2022-10-16T13:33:01;100808.47;;;20.86;62.97
19112;BME280;9688;51.906;8.376;2022-10-16T13:36:21;100821.41;;;20.69;63.18
19112;BME280;9688;51.906;8.376;2022-10-16T13:39:30;100819.16;;;20.52;63.52
19112;BME280;9688;51.906;8.376;2022-10-16T13:42:36;100836.06;;;20.41;63.52
19112;BME280;9688;51.906;8.376;2022-10-16T13:45:41;100828.88;;;20.42;63.40
19112;BME280;9688;51.906;8.376;2022-10-16T13:48:56;100815.56;;;20.40;63.48
19112;BME280;9688;51.906;8.376;2022-10-16T13:52:03;100817.84;;;20.58;62.84
19112;BME280;9688;51.906;8.376;2022-10-16T13:55:12;100819.97;;;20.77;63.17
19112;BME280;9688;51.906;8.376;2022-10-16T13:58:19;100828.41;;;20.94;62.62
19112;BME280;9688;51.906;8.376;2022-10-16T14:01:26;100824.25;;;21.02;62.22
19112;BME280;9688;51.906;8.376;2022-10-16T14:04:32;100825.25;;;21.01;62.18
19112;BME280;9688;51.906;8.376;2022-10-16T14:07:43;100829.63;;;21.02;62.11
19112;BME280;9688;51.906;8.376;2022-10-16T14:10:49;100836.34;;;20.96;62.15
19112;BME280;9688;51.906;8.376;2022-10-16T14:13:56;100840.63;;;20.87;62.44
19112;BME280;9688;51.906;8.376;2022-10-16T14:17:03;100848.19;;;20.82;62.35
19112;BME280;9688;51.906;8.376;2022-10-16T14:20:17;100843.91;;;20.91;61.97
19112;BME280;9688;51.906;8.376;2022-10-16T14:23:29;100836.59;;;21.04;61.94
19112;BME280;9688;51.906;8.376;2022-10-16T14:26:41;100831.22;;;21.15;61.51
19112;BME280;9688;51.906;8.376;2022-10-16T14:29:47;100840.66;;;21.21;61.40
19112;BME280;9688;51.906;8.376;2022-10-16T14:32:54;100838.06;;;21.20;61.50
19112;BME280;9688;51.906;8.376;2022-10-16T14:36:05;100832.56;;;21.21;61.45
19112;BME280;9688;51.906;8.376;2022-10-16T14:39:19;100834.53;;;21.19;61.09
19112;BME280;9688;51.906;8.376;2022-10-16T14:42:26;100835.50;;;21.07;61.15
19112;BME280;9688;51.906;8.376;2022-10-16T14:45:34;100829.28;;;20.95;61.46
19112;BME280;9688;51.906;8.376;2022-10-16T14:48:45;100835.34;;;20.75;61.53
19112;BME280;9688;51.906;8.376;2022-10-16T14:51:55;100836.66;;;20.69;61.82
19112;BME280;9688;51.906;8.376;2022-10-16T14:55:06;100830.09;;;20.62;61.86
19112;BME280;9688;51.906;8.376;2022-10-16T14:58:15;100833.34;;;20.54;62.05
19112;BME280;9688;51.906;8.376;2022-10-16T15:01:20;100838.28;;;20.47;62.37
19112;BME280;9688;51.906;8.376;2022-10-16T15:04:24;100841.09;;;20.46;62.62
19112;BME280;9688;51.906;8.376;2022-10-16T15:07:29;100845.16;;;20.52;62.40
19112;BME280;9688;51.906;8.376;2022-10-16T15:10:38;100841.03;;;20.59;62.56
19112;BME280;9688;51.906;8.376;2022-10-16T15:13:45;100861.44;;;20.61;62.39
19112;BME280;9688;51.906;8.376;2022-10-16T15:16:52;100855.44;;;20.58;62.25
19112;BME280;9688;51.906;8.376;2022-10-16T15:19:58;100866.44;;;20.55;62.67
19112;BME280;9688;51.906;8.376;2022-10-16T15:23:04;100862.22;;;20.50;62.41
19112;BME280;9688;51.906;8.376;2022-10-16T15:26:13;100859.41;;;20.41;62.72
19112;BME280;9688;51.906;8.376;2022-10-16T15:29:19;100858.50;;;20.29;62.87
19112;BME280;9688;51.906;8.376;2022-10-16T15:32:25;100866.75;;;20.15;63.03
19112;BME280;9688;51.906;8.376;2022-10-16T15:35:30;100860.56;;;20.01;63.17
19112;BME280;9688;51.906;8.376;2022-10-16T15:38:35;100864.03;;;19.91;63.79
19112;BME280;9688;51.906;8.376;2022-10-16T15:41:44;100865.81;;;19.79;63.73
19112;BME280;9688;51.906;8.376;2022-10-16T15:44:53;100861.94;;;19.70;64.02
19112;BME280;9688;51.906;8.376;2022-10-16T15:47:57;100849.81;;;19.65;64.15
19112;BME280;9688;51.906;8.376;2022-10-16T15:51:05;100853.47;;;19.64;64.45
19112;BME280;9688;51.906;8.376;2022-10-16T15:54:10;100848.22;;;19.62;64.79
19112;BME280;9688;51.906;8.376;2022-10-16T15:57:15;100845.75;;;19.59;64.88
19112;BME280;9688;51.906;8.376;2022-10-16T16:00:22;100855.75;;;19.57;65.16
19112;BME280;9688;51.906;8.376;2022-10-16T16:03:30;100866.81;;;19.52;65.24
19112;BME280;9688;51.906;8.376;2022-10-16T16:06:37;100865.31;;;19.48;65.71
19112;BME280;9688;51.906;8.376;2022-10-16T16:09:47;100865.50;;;19.45;65.95
19112;BME280;9688;51.906;8.376;2022-10-16T16:12:54;100868.78;;;19.37;66.42
19112;BME280;9688;51.906;8.376;2022-10-16T16:15:59;100872.00;;;19.30;66.86
19112;BME280;9688;51.906;8.376;2022-10-16T16:19:04;100890.22;;;19.25;67.12
19112;BME280;9688;51.906;8.376;2022-10-16T16:22:10;100884.22;;;19.21;67.55
19112;BME280;9688;51.906;8.376;2022-10-16T16:25:17;100869.31;;;19.17;67.75
19112;BME280;9688;51.906;8.376;2022-10-16T16:28:26;100882.94;;;19.14;68.68
19112;BME280;9688;51.906;8.376;2022-10-16T16:31:32;100882.28;;;19.10;68.96
19112;BME280;9688;51.906;8.376;2022-10-16T16:34:37;100893.22;;;19.07;69.32
19112;BME280;9688;51.906;8.376;2022-10-16T16:37:42;100886.34;;;19.03;69.50
19112;BME280;9688;51.906;8.376;2022-10-16T16:40:47;100888.50;;;18.98;69.72
19112;BME280;9688;51.906;8.376;2022-10-16T16:43:53;100879.94;;;18.93;70.64
19112;BME280;9688;51.906;8.376;2022-10-16T16:46:58;100884.63;;;18.89;71.19